createdAt,value
2023-04-05T00:00:35.523Z,100245.53
2023-04-05T00:03:03.252Z,100249.03
2023-04-05T00:05:34.648Z,100261.19
2023-04-05T00:08:02.380Z,100269.78
2023-04-05T00:10:30.944Z,100248.72
2023-04-05T00:12:58.770Z,100266.09
2023-04-05T00:15:27.328Z,100259.09
2023-04-05T00:17:54.981Z,100252.09
2023-04-05T00:20:22.014Z,100258.03
2023-04-05T00:22:50.935Z,100252.81
2023-04-05T00:25:18.619Z,100256.19
2023-04-05T00:27:45.943Z,100254.38
2023-04-05T00:30:13.507Z,100245.34
2023-04-05T00:32:40.723Z,100261.97
2023-04-05T00:35:08.065Z,100262.69
2023-04-05T00:37:35.020Z,100261.69
2023-04-05T00:40:01.991Z,100264.13
2023-04-05T00:42:30.455Z,100253.53
2023-04-05T00:44:57.438Z,100255.94
2023-04-05T00:47:24.988Z,100251.31
2023-04-05T00:49:52.525Z,100258.44
2023-04-05T00:52:23.541Z,100259.09
2023-04-05T00:54:52.639Z,100272.03
2023-04-05T00:57:20.254Z,100269.38
2023-04-05T00:59:47.254Z,100277.22
2023-04-05T01:02:52.186Z,100274.91
2023-04-05T01:05:24.074Z,100262.34
2023-04-05T01:07:59.359Z,100252.69
2023-04-05T01:10:35.603Z,100216.41
2023-04-05T01:13:03.004Z,100271.59
2023-04-05T01:15:30.982Z,100241.50
2023-04-05T01:17:58.169Z,100279.28
2023-04-05T01:20:26.537Z,100268.75
2023-04-05T01:23:20.937Z,100276.50
2023-04-05T01:26:06.926Z,100276.44
2023-04-05T01:28:49.020Z,100268.47
2023-04-05T01:31:21.760Z,100266.56
2023-04-05T01:34:19.493Z,100254.28
2023-04-05T01:37:01.475Z,100270.88
2023-04-05T01:39:30.055Z,100276.69
2023-04-05T01:42:00.368Z,100246.88
2023-04-05T01:44:27.988Z,100281.72
2023-04-05T01:46:56.283Z,100278.97
2023-04-05T01:49:24.499Z,100277.09
2023-04-05T01:51:51.697Z,100291.88
2023-04-05T01:54:18.671Z,100287.53
2023-04-05T01:56:46.215Z,100286.72
2023-04-05T01:59:13.311Z,100280.50
2023-04-05T02:01:40.455Z,100281.28
2023-04-05T02:04:07.406Z,100271.50
2023-04-05T02:06:34.367Z,100286.97
2023-04-05T02:09:02.245Z,100258.81
2023-04-05T02:11:29.272Z,100292.84
2023-04-05T02:13:58.857Z,100291.84
2023-04-05T02:16:45.820Z,100288.31
2023-04-05T02:19:13.404Z,100311.59
2023-04-05T02:21:41.079Z,100313.16
2023-04-05T02:24:08.290Z,100252.53
2023-04-05T02:26:35.288Z,100317.28
2023-04-05T02:29:02.224Z,100308.56
2023-04-05T02:31:29.216Z,100317.06
2023-04-05T02:33:56.191Z,100315.06
2023-04-05T02:36:24.468Z,100301.81
2023-04-05T02:38:51.405Z,100316.56
2023-04-05T02:41:18.419Z,100324.09
2023-04-05T02:43:45.647Z,100323.03
2023-04-05T02:46:12.610Z,100323.47
2023-04-05T02:48:42.136Z,100325.06
2023-04-05T02:51:10.584Z,100331.06
2023-04-05T02:53:40.609Z,100324.75
2023-04-05T02:56:13.790Z,100328.06
2023-04-05T02:58:43.846Z,100334.00
2023-04-05T03:01:11.206Z,100338.28
2023-04-05T03:03:40.670Z,100313.59
2023-04-05T03:06:11.947Z,100331.13
2023-04-05T03:08:46.670Z,100328.34
2023-04-05T03:11:16.726Z,100330.91
2023-04-05T03:13:47.858Z,100320.91
2023-04-05T03:16:28.746Z,100330.34
2023-04-05T03:18:57.294Z,100342.56
2023-04-05T03:21:24.974Z,100316.03
2023-04-05T03:24:00.533Z,100339.78
2023-04-05T03:26:35.898Z,100346.38
2023-04-05T03:29:03.591Z,100350.75
2023-04-05T03:31:34.772Z,100350.56
2023-04-05T03:34:05.871Z,100350.84
2023-04-05T03:36:43.410Z,100351.00
2023-04-05T03:39:32.230Z,100357.88
2023-04-05T03:41:59.672Z,100361.31
2023-04-05T03:44:26.586Z,100341.94
2023-04-05T03:46:54.030Z,100362.97
2023-04-05T03:49:22.823Z,100346.13
2023-04-05T03:51:50.205Z,100356.38
2023-04-05T03:54:18.819Z,100357.97
2023-04-05T03:56:46.205Z,100312.16
2023-04-05T03:59:16.388Z,100362.28
2023-04-05T04:01:45.009Z,100365.81
2023-04-05T04:04:13.727Z,100374.09
2023-04-05T04:06:44.704Z,100383.59
2023-04-05T04:09:13.557Z,100388.06
2023-04-05T04:11:40.900Z,100388.88
2023-04-05T04:14:08.774Z,100390.53
2023-04-05T04:16:54.343Z,100376.00
2023-04-05T04:19:31.570Z,100396.16
2023-04-05T04:22:22.718Z,100369.00
2023-04-05T04:25:11.387Z,100392.22
2023-04-05T04:27:56.539Z,100391.53
2023-04-05T04:30:57.519Z,100403.97
2023-04-05T04:33:50.557Z,100400.72
2023-04-05T04:36:36.415Z,100415.63
2023-04-05T04:39:45.205Z,100393.03
2023-04-05T04:42:23.981Z,100411.97
2023-04-05T04:45:07.274Z,100415.72
2023-04-05T04:47:48.108Z,100415.09
2023-04-05T04:50:20.047Z,100421.13
2023-04-05T04:52:47.450Z,100405.84
2023-04-05T04:55:14.526Z,100414.09
2023-04-05T04:57:42.957Z,100417.84
2023-04-05T05:00:13.585Z,100421.66
2023-04-05T05:02:42.358Z,100420.19
2023-04-05T05:05:10.000Z,100420.31
2023-04-05T05:07:41.084Z,100424.66
2023-04-05T05:10:09.534Z,100424.47
2023-04-05T05:12:37.332Z,100399.88
2023-04-05T05:15:04.649Z,100432.34
2023-04-05T05:17:32.557Z,100444.47
2023-04-05T05:20:00.506Z,100359.47
2023-04-05T05:22:28.401Z,100425.47
2023-04-05T05:24:55.374Z,100418.03
2023-04-05T05:27:23.072Z,100440.13
2023-04-05T05:29:50.027Z,100442.34
2023-04-05T05:32:17.155Z,100431.00
2023-04-05T05:34:45.240Z,100437.13
2023-04-05T05:37:16.801Z,100427.66
2023-04-05T05:39:46.537Z,100423.56
2023-04-05T05:42:13.531Z,100421.56
2023-04-05T05:44:40.732Z,100420.19
2023-04-05T05:47:07.738Z,100425.84
2023-04-05T05:49:34.766Z,100446.94
2023-04-05T05:52:01.834Z,100453.16
2023-04-05T05:54:28.842Z,100449.00
2023-04-05T05:56:55.865Z,100427.88
2023-04-05T05:59:23.077Z,100449.75
2023-04-05T06:01:51.279Z,100440.25
2023-04-05T06:04:19.394Z,100459.47
2023-04-05T06:06:47.936Z,100454.47
2023-04-05T06:09:15.948Z,100454.97
2023-04-05T06:11:53.127Z,100455.16
2023-04-05T06:14:24.474Z,100455.19
2023-04-05T06:16:51.459Z,100446.19
2023-04-05T06:19:18.541Z,100455.31
2023-04-05T06:21:45.559Z,100420.91
2023-04-05T06:24:12.662Z,100452.97
2023-04-05T06:26:39.711Z,100454.88
2023-04-05T06:29:06.805Z,100443.97
2023-04-05T06:31:35.835Z,100457.09
2023-04-05T06:34:03.157Z,100461.25
2023-04-05T06:36:32.130Z,100463.69
2023-04-05T06:38:59.660Z,100440.19
2023-04-05T06:41:27.897Z,100453.59
2023-04-05T06:43:56.625Z,100456.03
2023-04-05T06:46:24.799Z,100463.25
2023-04-05T06:48:52.803Z,100463.78
2023-04-05T06:51:20.233Z,100450.88
2023-04-05T06:53:47.227Z,100462.19
2023-04-05T06:56:14.229Z,100448.88
2023-04-05T06:58:41.480Z,100447.66
2023-04-05T07:01:08.556Z,100450.63
2023-04-05T07:03:35.676Z,100451.72
2023-04-05T07:06:03.079Z,100458.09
2023-04-05T07:08:32.929Z,100456.44
2023-04-05T07:10:59.888Z,100446.88
2023-04-05T07:13:26.944Z,100408.44
2023-04-05T07:16:01.227Z,100448.63
2023-04-05T07:18:30.090Z,100447.75
2023-04-05T07:21:02.160Z,100450.38
2023-04-05T07:23:29.955Z,100427.69
2023-04-05T07:26:05.278Z,100446.00
2023-04-05T07:28:33.940Z,100455.66
2023-04-05T07:31:01.726Z,100446.03
2023-04-05T07:33:28.790Z,100446.78
2023-04-05T07:35:57.233Z,100459.91
2023-04-05T07:38:25.059Z,100451.13
2023-04-05T07:40:52.113Z,100467.50
2023-04-05T07:43:19.676Z,100464.28
2023-04-05T07:45:46.808Z,100471.88
2023-04-05T07:48:13.812Z,100460.19
2023-04-05T07:50:41.415Z,100468.00
2023-04-05T07:53:08.504Z,100465.97
2023-04-05T07:55:38.200Z,100454.09
2023-04-05T07:58:05.185Z,100465.34
2023-04-05T08:00:32.331Z,100467.91
2023-04-05T08:03:02.242Z,100466.06
2023-04-05T08:05:29.727Z,100457.53
2023-04-05T08:07:58.415Z,100466.28
2023-04-05T08:10:25.918Z,100462.84
2023-04-05T08:12:53.543Z,100465.63
2023-04-05T08:15:20.500Z,100462.19
2023-04-05T08:17:47.587Z,100459.63
2023-04-05T08:20:14.611Z,100474.50
2023-04-05T08:22:41.657Z,100455.47
2023-04-05T08:25:09.379Z,100461.66
2023-04-05T08:27:36.493Z,100479.16
2023-04-05T08:30:04.293Z,100484.41
2023-04-05T08:32:33.127Z,100491.47
2023-04-05T08:35:00.455Z,100479.19
2023-04-05T08:37:28.088Z,100462.56
2023-04-05T08:39:55.377Z,100475.63
2023-04-05T08:42:36.823Z,100480.00
2023-04-05T08:45:04.996Z,100435.50
2023-04-05T08:47:35.757Z,100458.22
2023-04-05T08:50:04.003Z,100480.00
2023-04-05T08:52:38.061Z,100469.38
2023-04-05T08:55:06.645Z,100465.66
2023-04-05T08:57:37.479Z,100455.75
2023-04-05T09:00:05.464Z,100463.97
2023-04-05T09:02:33.680Z,100464.34
2023-04-05T09:05:02.717Z,100450.72
2023-04-05T09:07:31.424Z,100465.44
2023-04-05T09:12:28.448Z,100468.03
2023-04-05T09:14:56.279Z,100464.09
2023-04-05T09:17:23.328Z,100457.72
2023-04-05T09:19:50.620Z,100460.22
2023-04-05T09:22:20.696Z,100464.53
2023-04-05T09:24:47.837Z,100471.25
2023-04-05T09:27:20.563Z,100472.59
2023-04-05T09:29:59.831Z,100459.84
2023-04-05T09:32:29.500Z,100467.19
2023-04-05T09:35:01.317Z,100467.28
2023-04-05T09:37:31.379Z,100459.69
2023-04-05T09:40:07.010Z,100465.97
2023-04-05T09:42:47.719Z,100466.09
2023-04-05T09:45:20.783Z,100466.91
2023-04-05T09:47:58.545Z,100460.75
2023-04-05T09:50:26.002Z,100444.94
2023-04-05T09:53:16.239Z,100472.00
2023-04-05T09:55:44.005Z,100463.25
2023-04-05T09:58:19.603Z,100467.56
2023-04-05T10:01:00.018Z,100455.28
2023-04-05T10:03:46.459Z,100454.19
2023-04-05T10:06:14.537Z,100460.28
2023-04-05T10:08:41.571Z,100449.00
2023-04-05T10:11:09.204Z,100470.94
2023-04-05T10:13:38.759Z,100442.91
2023-04-05T10:16:10.444Z,100459.47
2023-04-05T10:18:51.430Z,100459.44
2023-04-05T10:21:23.920Z,100459.03
2023-04-05T10:24:01.567Z,100465.84
2023-04-05T10:26:40.562Z,100472.59
2023-04-05T10:29:13.432Z,100463.84
2023-04-05T10:32:29.516Z,100469.50
2023-04-05T10:35:11.333Z,100460.75
2023-04-05T10:37:44.002Z,100460.97
2023-04-05T10:40:13.127Z,100440.25
2023-04-05T10:42:46.660Z,100412.41
2023-04-05T10:45:18.147Z,100440.28
2023-04-05T10:47:59.268Z,100449.00
2023-04-05T10:50:26.470Z,100439.44
2023-04-05T10:52:53.813Z,100457.75
2023-04-05T10:55:22.051Z,100436.88
2023-04-05T10:57:50.769Z,100451.75
2023-04-05T11:00:19.016Z,100450.13
2023-04-05T11:02:47.691Z,100453.75
2023-04-05T11:05:31.695Z,100445.03
2023-04-05T11:08:08.878Z,100454.63
2023-04-05T11:10:37.761Z,100460.75
2023-04-05T11:13:06.888Z,100455.47
2023-04-05T11:15:35.251Z,100457.22
2023-04-05T11:18:09.633Z,100452.81
2023-04-05T11:21:10.879Z,100449.31
2023-04-05T11:24:09.778Z,100448.34
2023-04-05T11:26:49.066Z,100450.16
2023-04-05T11:29:16.313Z,100448.41
2023-04-05T11:32:11.675Z,100435.25
2023-04-05T11:34:41.708Z,100444.09
2023-04-05T11:37:08.714Z,100450.28
2023-04-05T11:39:37.462Z,100431.13
2023-04-05T11:42:12.424Z,100444.28
2023-04-05T11:44:43.558Z,100439.03
2023-04-05T11:47:11.749Z,100439.91
2023-04-05T11:49:40.226Z,100444.28
2023-04-05T11:52:15.666Z,100439.03
2023-04-05T11:54:46.875Z,100355.16
2023-04-05T11:57:22.603Z,100439.03
2023-04-05T11:59:52.268Z,100439.91
2023-04-05T12:02:20.504Z,100435.50
2023-04-05T12:04:57.740Z,100409.31
2023-04-05T12:07:29.547Z,100412.78
2023-04-05T12:10:01.195Z,100433.72
2023-04-05T12:12:33.434Z,100415.28
2023-04-05T12:15:02.253Z,100432.72
2023-04-05T12:17:40.680Z,100430.13
2023-04-05T12:20:08.774Z,100421.38
2023-04-05T12:22:38.189Z,100430.13
2023-04-05T12:25:06.046Z,100387.22
2023-04-05T12:27:33.238Z,100442.31
2023-04-05T12:30:07.159Z,100423.13
2023-04-05T12:32:59.052Z,100419.59
2023-04-05T12:35:34.930Z,100424.00
2023-04-05T12:38:03.769Z,100416.16
2023-04-05T12:40:32.964Z,100409.16
2023-04-05T12:43:08.971Z,100419.66
2023-04-05T12:45:43.820Z,100429.28
2023-04-05T12:48:19.915Z,100416.25
2023-04-05T12:50:48.747Z,100417.97
2023-04-05T12:53:21.145Z,100413.59
2023-04-05T12:55:50.912Z,100424.06
2023-04-05T12:58:19.494Z,100410.78
2023-04-05T13:00:47.093Z,100425.63
2023-04-05T13:03:21.228Z,100403.78
2023-04-05T13:05:51.711Z,100422.97
2023-04-05T13:08:19.242Z,100424.72
2023-04-05T13:10:47.574Z,100419.53
2023-04-05T13:13:17.944Z,100425.63
2023-04-05T13:15:52.060Z,100421.22
2023-04-05T13:18:20.800Z,100421.22
2023-04-05T13:20:48.003Z,100407.19
2023-04-05T13:23:15.054Z,100434.25
2023-04-05T13:25:43.765Z,100421.13
2023-04-05T13:28:11.158Z,100428.06
2023-04-05T13:30:38.257Z,100424.47
2023-04-05T13:33:05.432Z,100422.69
2023-04-05T13:35:33.144Z,100415.63
2023-04-05T13:38:04.260Z,100427.78
2023-04-05T13:40:32.577Z,100422.50
2023-04-05T13:42:59.836Z,100422.44
2023-04-05T13:45:28.155Z,100426.03
2023-04-05T13:47:55.800Z,100405.91
2023-04-05T13:50:23.048Z,100418.19
2023-04-05T13:52:50.048Z,100418.97
2023-04-05T13:55:17.251Z,100419.59
2023-04-05T13:57:44.393Z,100426.53
2023-04-05T14:00:12.083Z,100412.47
2023-04-05T14:02:39.869Z,100424.72
2023-04-05T14:05:07.934Z,100411.53
2023-04-05T14:07:35.791Z,100437.75
2023-04-05T14:10:02.845Z,100431.59
2023-04-05T14:12:31.802Z,100388.59
2023-04-05T14:15:00.350Z,100443.66
2023-04-05T14:17:28.278Z,100348.13
2023-04-05T14:19:55.508Z,100438.28
2023-04-05T14:22:22.697Z,100440.88
2023-04-05T14:24:49.803Z,100432.91
2023-04-05T14:27:16.971Z,100451.06
2023-04-05T14:29:45.892Z,100415.88
2023-04-05T14:32:13.071Z,100457.88
2023-04-05T14:34:40.334Z,100437.63
2023-04-05T14:37:08.098Z,100456.91
2023-04-05T14:39:35.225Z,100454.13
2023-04-05T14:42:02.550Z,100442.72
2023-04-05T14:44:29.553Z,100430.38
2023-04-05T14:46:56.702Z,100473.06
2023-04-05T14:49:23.813Z,100463.38
2023-04-05T14:51:51.135Z,100466.81
2023-04-05T14:54:18.603Z,100475.41
2023-04-05T14:56:45.638Z,100464.69
2023-04-05T14:59:12.754Z,100461.91
2023-04-05T15:01:41.916Z,100471.63
2023-04-05T15:04:09.428Z,100460.94
2023-04-05T15:06:36.591Z,100466.22
2023-04-05T15:09:03.983Z,100471.38
2023-04-05T15:11:34.294Z,100476.50
2023-04-05T15:14:01.559Z,100477.28
2023-04-05T15:16:30.369Z,100458.00
2023-04-05T15:18:59.187Z,100488.56
2023-04-05T15:21:26.316Z,100470.25
2023-04-05T15:23:53.362Z,100492.03
2023-04-05T15:26:21.080Z,100484.09
2023-04-05T15:28:48.156Z,100497.03
2023-04-05T15:31:15.150Z,100494.38
2023-04-05T15:33:42.199Z,100499.66
2023-04-05T15:36:09.352Z,100491.75
2023-04-05T15:38:36.569Z,100508.28
2023-04-05T15:41:03.790Z,100501.94
2023-04-05T15:43:32.632Z,100502.72
2023-04-05T15:45:59.676Z,100516.66
2023-04-05T15:48:26.706Z,100523.53
2023-04-05T15:50:53.709Z,100521.78
2023-04-05T15:53:20.763Z,100507.59
2023-04-05T15:55:47.855Z,100508.34
2023-04-05T15:58:14.902Z,100523.19
2023-04-05T16:00:41.973Z,100524.00
2023-04-05T16:03:09.093Z,100517.63
2023-04-05T16:05:36.473Z,100531.66
2023-04-05T16:08:03.476Z,100535.94
2023-04-05T16:10:30.682Z,100540.19
2023-04-05T16:12:57.799Z,100537.41
2023-04-05T16:15:24.906Z,100534.63
2023-04-05T16:17:52.018Z,100509.03
2023-04-05T16:20:19.134Z,100523.03
2023-04-05T16:22:46.247Z,100489.53
2023-04-05T16:25:13.335Z,100548.31
2023-04-05T16:27:40.543Z,100545.59
2023-04-05T16:30:08.389Z,100548.78
2023-04-05T16:32:35.437Z,100550.63
2023-04-05T16:35:02.507Z,100551.19
2023-04-05T16:37:29.922Z,100568.59
2023-04-05T16:39:56.904Z,100566.78
2023-04-05T16:42:23.949Z,100542.97
2023-04-05T16:44:51.194Z,100569.09
2023-04-05T16:47:18.174Z,100572.53
2023-04-05T16:49:45.362Z,100570.81
2023-04-05T16:52:12.346Z,100574.25
2023-04-05T16:54:39.397Z,100564.56
2023-04-05T16:57:06.521Z,100569.78
2023-04-05T16:59:33.662Z,100575.97
2023-04-05T17:02:01.039Z,100557.53
2023-04-05T17:04:28.063Z,100578.41
2023-04-05T17:06:55.088Z,100574.78
2023-04-05T17:09:23.199Z,100594.00
2023-04-05T17:11:50.265Z,100594.78
2023-04-05T17:14:17.254Z,100595.63
2023-04-05T17:16:44.424Z,100588.50
2023-04-05T17:19:11.491Z,100591.94
2023-04-05T17:21:38.578Z,100603.25
2023-04-05T17:24:05.946Z,100606.78
2023-04-05T17:26:33.033Z,100604.97
2023-04-05T17:29:00.116Z,100592.47
2023-04-05T17:31:27.306Z,100609.09
2023-04-05T17:33:54.513Z,100603.56
2023-04-05T17:36:21.653Z,100618.53
2023-04-05T17:38:48.648Z,100623.69
2023-04-05T17:41:15.756Z,100602.56
2023-04-05T17:43:42.821Z,100611.22
2023-04-05T17:46:13.820Z,100631.28
2023-04-05T17:48:41.980Z,100624.34
2023-04-05T17:51:09.647Z,100629.47
2023-04-05T17:53:36.675Z,100627.56
2023-04-05T17:56:03.860Z,100623.06
2023-04-05T17:58:32.455Z,100635.22
2023-04-05T18:01:00.321Z,100570.72
2023-04-05T18:03:27.922Z,100628.72
2023-04-05T18:05:55.930Z,100640.00
2023-04-05T18:08:24.386Z,100645.16
2023-04-05T18:11:00.810Z,100650.25
2023-04-05T18:13:28.564Z,100654.41
2023-04-05T18:16:00.047Z,100659.47
2023-04-05T18:18:27.670Z,100619.91
2023-04-05T18:20:56.158Z,100660.00
2023-04-05T18:23:25.052Z,100655.53
2023-04-05T18:25:53.548Z,100643.00
2023-04-05T18:28:23.464Z,100667.59
2023-04-05T18:30:52.914Z,100663.91
2023-04-05T18:33:22.440Z,100656.72
2023-04-05T18:35:50.587Z,100664.56
2023-04-05T18:38:17.878Z,100663.63
2023-04-05T18:40:45.014Z,100664.31
2023-04-05T18:43:12.125Z,100653.75
2023-04-05T18:45:39.513Z,100657.91
2023-04-05T18:48:06.804Z,100652.66
2023-04-05T18:50:35.153Z,100631.25
2023-04-05T18:53:02.616Z,100663.75
2023-04-05T18:55:29.579Z,100670.47
2023-04-05T18:57:56.988Z,100670.22
2023-04-05T19:00:24.147Z,100662.00
2023-04-05T19:02:51.491Z,100674.50
2023-04-05T19:05:18.591Z,100671.78
2023-04-05T19:07:45.678Z,100650.38
2023-04-05T19:10:12.767Z,100677.50
2023-04-05T19:12:39.855Z,100687.72
2023-04-05T19:15:07.679Z,100686.63
2023-04-05T19:17:34.791Z,100673.44
2023-04-05T19:20:01.825Z,100669.88
2023-04-05T19:22:29.011Z,100692.22
2023-04-05T19:24:56.111Z,100664.16
2023-04-05T19:27:23.229Z,100670.13
2023-04-05T19:29:50.479Z,100672.66
2023-04-05T19:32:17.520Z,100681.41
2023-04-05T19:34:44.599Z,100686.53
2023-04-05T19:37:11.708Z,100686.44
2023-04-05T19:39:38.712Z,100690.63
2023-04-05T19:42:06.526Z,100689.66
2023-04-05T19:44:54.845Z,100691.28
2023-04-05T19:47:22.414Z,100660.94
2023-04-05T19:49:51.370Z,100692.53
2023-04-05T19:52:45.539Z,100692.53
2023-04-05T19:55:31.318Z,100693.09
2023-04-05T19:58:03.281Z,100684.00
2023-04-05T20:00:42.290Z,100690.09
2023-04-05T20:03:24.886Z,100696.94
2023-04-05T20:06:12.958Z,100697.63
2023-04-05T20:08:45.625Z,100687.69
2023-04-05T20:11:14.016Z,100684.19
2023-04-05T20:13:47.981Z,100697.91
2023-04-05T20:16:16.584Z,100697.03
2023-04-05T20:18:48.647Z,100705.66
2023-04-05T20:21:16.781Z,100703.91
2023-04-05T20:23:44.707Z,100705.44
2023-04-05T20:26:15.683Z,100697.34
2023-04-05T20:28:55.493Z,100701.78
2023-04-05T20:31:29.195Z,100705.16
2023-04-05T20:34:15.227Z,100710.28
2023-04-05T20:36:47.785Z,100710.81
2023-04-05T20:39:14.972Z,100715.75
2023-04-05T20:41:42.887Z,100691.31
2023-04-05T20:44:10.168Z,100715.06
2023-04-05T20:46:37.563Z,100708.88
2023-04-05T20:49:04.739Z,100714.25
2023-04-05T20:51:31.964Z,100722.09
2023-04-05T20:53:58.952Z,100714.00
2023-04-05T20:56:26.032Z,100717.75
2023-04-05T20:58:55.006Z,100729.03
2023-04-05T21:01:22.178Z,100726.34
2023-04-05T21:03:49.182Z,100731.38
2023-04-05T21:06:16.652Z,100739.91
2023-04-05T21:08:43.711Z,100736.13
2023-04-05T21:11:13.556Z,100733.47
2023-04-05T21:13:41.571Z,100675.81
2023-04-05T21:16:08.652Z,100711.94
2023-04-05T21:18:36.569Z,100737.44
2023-04-05T21:21:04.378Z,100735.44
2023-04-05T21:23:33.502Z,100736.31
2023-04-05T21:26:01.704Z,100722.66
2023-04-05T21:28:28.698Z,100749.06
2023-04-05T21:30:55.747Z,100744.53
2023-04-05T21:33:22.932Z,100746.91
2023-04-05T21:35:50.968Z,100748.81
2023-04-05T21:38:18.577Z,100725.47
2023-04-05T21:40:47.254Z,100747.59
2023-04-05T21:43:14.229Z,100742.25
2023-04-05T21:45:41.236Z,100728.03
2023-04-05T21:48:08.402Z,100736.56
2023-04-05T21:50:35.739Z,100745.34
2023-04-05T21:53:02.860Z,100735.75
2023-04-05T21:55:29.855Z,100735.31
2023-04-05T21:57:56.848Z,100757.16
2023-04-05T22:00:24.072Z,100729.78
2023-04-05T22:02:51.266Z,100728.84
2023-04-05T22:07:48.356Z,100668.00
2023-04-05T22:10:15.499Z,100754.19
2023-04-05T22:12:42.490Z,100736.91
2023-04-05T22:15:10.231Z,100747.06
2023-04-05T22:17:37.313Z,100737.41
2023-04-05T22:20:04.765Z,100739.94
2023-04-05T22:22:31.968Z,100707.06
2023-04-05T22:24:59.048Z,100750.06
2023-04-05T22:27:28.288Z,100735.94
2023-04-05T22:29:56.684Z,100747.25
2023-04-05T22:32:23.836Z,100755.81
2023-04-05T22:34:53.631Z,100741.75
2023-04-05T22:37:20.641Z,100748.78
2023-04-05T22:39:47.699Z,100752.19
2023-04-05T22:42:14.659Z,100700.06
2023-04-05T22:44:41.663Z,100753.78
2023-04-05T22:47:08.644Z,100732.63
2023-04-05T22:49:35.631Z,100709.91
2023-04-05T22:52:02.669Z,100743.06
2023-04-05T22:54:29.756Z,100741.38
2023-04-05T22:56:56.883Z,100752.03
2023-04-05T22:59:23.969Z,100762.25
2023-04-05T23:01:51.483Z,100729.69
2023-04-05T23:04:19.011Z,100764.81
2023-04-05T23:06:46.053Z,100756.91
2023-04-05T23:09:14.776Z,100741.97
2023-04-05T23:11:41.884Z,100759.56
2023-04-05T23:14:09.182Z,100709.19
2023-04-05T23:16:36.413Z,100715.97
2023-04-05T23:19:03.891Z,100724.00
2023-04-05T23:21:31.322Z,100750.47
2023-04-05T23:23:58.319Z,100737.25
2023-04-05T23:26:27.497Z,100740.47
2023-04-05T23:28:54.614Z,100734.22
2023-04-05T23:31:21.632Z,100745.66
2023-04-05T23:33:48.615Z,100733.97
2023-04-05T23:36:15.732Z,100733.69
2023-04-05T23:38:44.973Z,100746.94
2023-04-05T23:41:13.189Z,100738.97
2023-04-05T23:43:40.433Z,100758.13
2023-04-05T23:46:07.977Z,100740.63
2023-04-05T23:48:35.113Z,100752.03
2023-04-05T23:51:02.225Z,100750.72
2023-04-05T23:53:29.215Z,100738.34
2023-04-05T23:55:57.046Z,100750.66
2023-04-05T23:58:24.253Z,100725.09
